Dillon, Illinois
Current Conditions -  °F | °C
As of 9:54 PM on Tuesday 25 Nov 2014 (Local Time) from KPIA Reporting Station
Clear Clear  
Wind Chill: 18°   Ceiling: Unl
Heat Index: 24°   Visibility: 9mi
Dew Point: 18°   Wind: 5mph
Humidity: 77%   Direction: 120°ESE
Pressure: 30.18"   Gusts: NA
Location:  40.4817°N, 89.4923°W
Report Text: KPIA 260354Z 12004KT 9SM CLR M04/M08 A3018 RMK AO2 SLP229 T10441078
Loading
Personal Weather Stations






























Interactive Weather Map New forecast layout! Learn more

10-Day Weather Forecast

Advertisements
Track Severe Weather on mobile